Buoy 41613

sailwx.info

Track history (hours):
 
Tides and Currents Weather Stations Pressure Air Temp Water Temp Dewpoint Dewpoint Depression Visibility Wind Speed Wind Dir Waves Ship Positions

Drifting buoy 41613

Last reported at 2014-Oct-25 20:00 UTC. Time now 2014-Oct-26 07:44 UTC.
Position N 24°36' W 071°40'.

Water temperature 28.5 ° C

Date/timePositionNaut miles runAvg speedWind from/ knotsBaromVisibWave heightAir tempDewpointWater temp
2014-Oct-25 20:00N 24°36' W 071°40'0 0.0 28.5
2014-Oct-25 17:00N 24°36' W 071°40'0 0.0 28.5
2014-Oct-25 15:00N 24°36' W 071°40'0 0.0 28.6
2014-Oct-25 11:00N 24°36' W 071°40'0 0.3 28.5
2014-Oct-25 10:00N 24°36' W 071°41'0 0.0 28.5
2014-Oct-25 09:00N 24°36' W 071°41'13 3.3 28.5
2014-Oct-25 05:00N 24°40' W 071°54'0 0.0 28.6
2014-Oct-25 01:00N 24°40' W 071°54'0 0.0 28.6
2014-Oct-24 21:00N 24°40' W 071°54'0 0.0 28.5
2014-Oct-24 19:00N 24°40' W 071°54'0 0.0 28.5
2014-Oct-24 14:00N 24°40' W 071°54'13 3.4 28.6
2014-Oct-24 10:00N 24°52' W 072°02'0 0.0 28.6
2014-Oct-24 09:00N 24°52' W 072°02'0 0.0 28.6
2014-Oct-24 08:00N 24°52' W 072°02'0 0.0 28.6
2014-Oct-23 22:00N 24°52' W 072°02'0 0.0 28.6
2014-Oct-23 18:00N 24°52' W 072°02'3 0.8 28.7
2014-Oct-23 14:00N 24°55' W 072°03'0 0.0 28.6
2014-Oct-23 11:00N 24°55' W 072°03'0 0.0 28.6
2014-Oct-23 10:00N 24°55' W 072°03'19 2.4 28.6
2014-Oct-23 02:00N 25°14' W 072°03'0 0.0 28.6
2014-Oct-22 23:00N 25°14' W 072°03'0 0.0 28.7
2014-Oct-22 08:00N 25°14' W 072°03'0 0.0 28.6
2014-Oct-22 02:00N 25°14' W 072°03'0 0.0 28.8
2014-Oct-22 00:00N 25°14' W 072°03'5 0.8 28.8
2014-Oct-21 18:00N 25°18' W 072°01'0 0.0 29.0
2014-Oct-21 09:00N 25°18' W 072°01'8 1.1 28.6
2014-Oct-21 01:00N 25°25' W 071°54'0 0.0 28.7
2014-Oct-20 22:00N 25°25' W 071°54'0 0.0 28.7
2014-Oct-20 20:00N 25°25' W 071°54'0 0.0 28.7
2014-Oct-20 18:00N 25°25' W 071°54'16 2.0 28.7
2014-Oct-20 10:00N 25°27' W 071°37'0 0.0 28.7
2014-Oct-20 09:00N 25°27' W 071°37'0 0.0 28.7
2014-Oct-20 01:00N 25°27' W 071°37'0 0.0 28.8
2014-Oct-19 19:00N 25°27' W 071°37'0 0.0 29.4
2014-Oct-19 18:00N 25°27' W 071°37'0 0.0 29.3
2014-Oct-19 17:00N 25°27' W 071°37'0 0.0 29.1
2014-Oct-19 14:00N 25°27' W 071°37'0 0.0 28.7
2014-Oct-19 09:00N 25°27' W 071°37'0 0.0 28.7
2014-Oct-18 22:00N 25°27' W 071°37'0 0.0 28.9
2014-Oct-18 21:00N 25°27' W 071°37'3 0.3 28.9
2014-Oct-18 10:00N 25°25' W 071°35'4 0.8 28.7
2014-Oct-18 05:00N 25°22' W 071°31'8 2.5 28.7
2014-Oct-18 02:00N 25°15' W 071°27'0 0.0 28.7
2014-Oct-17 23:00N 25°15' W 071°27'0 0.0 28.8
2014-Oct-17 19:00N 25°15' W 071°27'0 0.0 28.8
2014-Oct-17 17:00N 25°15' W 071°27'0 0.0 28.8
2014-Oct-17 10:00N 25°15' W 071°27'   28.7
Track history (hours):
 
Tides and Currents Weather Stations Pressure Air Temp Water Temp Dewpoint Dewpoint Depression Visibility Wind Speed Wind Dir Waves Ship Positions

Drifting buoy 41613

Last reported at 2014-Oct-25 20:00 UTC. Time now 2014-Oct-26 07:44 UTC.
Position N 24°36' W 071°40'.

Water temperature 28.5 ° C

Date/timePositionNaut miles runAvg speedWind from/ knotsBaromVisibWave heightAir tempDewpointWater temp
2014-Oct-25 20:00N 24°36' W 071°40'0 0.0 28.5
2014-Oct-25 17:00N 24°36' W 071°40'0 0.0 28.5
2014-Oct-25 15:00N 24°36' W 071°40'0 0.0 28.6
2014-Oct-25 11:00N 24°36' W 071°40'0 0.3 28.5
2014-Oct-25 10:00N 24°36' W 071°41'0 0.0 28.5
2014-Oct-25 09:00N 24°36' W 071°41'13 3.3 28.5
2014-Oct-25 05:00N 24°40' W 071°54'0 0.0 28.6
2014-Oct-25 01:00N 24°40' W 071°54'0 0.0 28.6
2014-Oct-24 21:00N 24°40' W 071°54'0 0.0 28.5
2014-Oct-24 19:00N 24°40' W 071°54'0 0.0 28.5
2014-Oct-24 14:00N 24°40' W 071°54'13 3.4 28.6
2014-Oct-24 10:00N 24°52' W 072°02'0 0.0 28.6
2014-Oct-24 09:00N 24°52' W 072°02'0 0.0 28.6
2014-Oct-24 08:00N 24°52' W 072°02'0 0.0 28.6
2014-Oct-23 22:00N 24°52' W 072°02'0 0.0 28.6
2014-Oct-23 18:00N 24°52' W 072°02'3 0.8 28.7
2014-Oct-23 14:00N 24°55' W 072°03'0 0.0 28.6
2014-Oct-23 11:00N 24°55' W 072°03'0 0.0 28.6
2014-Oct-23 10:00N 24°55' W 072°03'19 2.4 28.6
2014-Oct-23 02:00N 25°14' W 072°03'0 0.0 28.6
2014-Oct-22 23:00N 25°14' W 072°03'0 0.0 28.7
2014-Oct-22 08:00N 25°14' W 072°03'0 0.0 28.6
2014-Oct-22 02:00N 25°14' W 072°03'0 0.0 28.8
2014-Oct-22 00:00N 25°14' W 072°03'5 0.8 28.8
2014-Oct-21 18:00N 25°18' W 072°01'0 0.0 29.0
2014-Oct-21 09:00N 25°18' W 072°01'8 1.1 28.6
2014-Oct-21 01:00N 25°25' W 071°54'0 0.0 28.7
2014-Oct-20 22:00N 25°25' W 071°54'0 0.0 28.7
2014-Oct-20 20:00N 25°25' W 071°54'0 0.0 28.7
2014-Oct-20 18:00N 25°25' W 071°54'16 2.0 28.7
2014-Oct-20 10:00N 25°27' W 071°37'0 0.0 28.7
2014-Oct-20 09:00N 25°27' W 071°37'0 0.0 28.7
2014-Oct-20 01:00N 25°27' W 071°37'0 0.0 28.8
2014-Oct-19 19:00N 25°27' W 071°37'0 0.0 29.4
2014-Oct-19 18:00N 25°27' W 071°37'0 0.0 29.3
2014-Oct-19 17:00N 25°27' W 071°37'0 0.0 29.1
2014-Oct-19 14:00N 25°27' W 071°37'0 0.0 28.7
2014-Oct-19 09:00N 25°27' W 071°37'0 0.0 28.7
2014-Oct-18 22:00N 25°27' W 071°37'0 0.0 28.9
2014-Oct-18 21:00N 25°27' W 071°37'3 0.3 28.9
2014-Oct-18 10:00N 25°25' W 071°35'4 0.8 28.7
2014-Oct-18 05:00N 25°22' W 071°31'8 2.5 28.7
2014-Oct-18 02:00N 25°15' W 071°27'0 0.0 28.7
2014-Oct-17 23:00N 25°15' W 071°27'0 0.0 28.8
2014-Oct-17 19:00N 25°15' W 071°27'0 0.0 28.8
2014-Oct-17 17:00N 25°15' W 071°27'0 0.0 28.8
2014-Oct-17 10:00N 25°15' W 071°27'   28.7

Dump ship's entire track history